South Milwaukee, WI

1:22 PM CST on January 31, 2015 (GMT -0600)
Middle Rd | Change Station
CLOSE
Current Station
Personal Weather Station
Location: Racine, WI
Elevation: 666 ft
Nearby Weather Stations
Active Advisory: Winter Storm Warning

Elev 666 ft 42.80 °N, 87.82 °W | Updated 6 minutes ago

Mostly Cloudy
Mostly Cloudy
41.4 °F
Feels Like 40 °F
N
3.2
Wind Variable Wind from NE

Today
High -- | Low -- °F
--% Chance of Precip.
Yesterday
High -- | Low -- °F
Precip. -- in
7:07 AM 5:02 PM
Waxing Gibbous, 91% visible
Pressure 30.19 in
Visibility 10.0 miles
Clouds Few 16000 ft
Mostly Cloudy 25000 ft
Windchill 40 °F
Dew Point 26 °F
Humidity 53%
Rainfall 0.00 in
Snow Depth Not available.
UV 2 out of 12
Pollen .10 out of 12
Air Quality Not available.
Flu Activity Not available.
METAR KMKE 311852Z 27006KT 10SM FEW160 BKN250 02/M07 A3016 RMK AO2 SLP223 T00221072

More Conditions Fewer Conditions

Pressure 30.19 in
Visibility 10.0 miles
Clouds Few 16000 ft
Mostly Cloudy 25000 ft
Windchill 40 °F
Dew Point 26 °F
Humidity 53%
Rainfall 0.00 in
Snow Depth Not available.
UV 2 out of 12
Pollen .10 out of 12
Air Quality Not available.
Flu Activity Not available.
METAR KMKE 311852Z 27006KT 10SM FEW160 BKN250 02/M07 A3016 RMK AO2 SLP223 T00221072

More Conditions Fewer Conditions

10-Day Weather Forecast

Almanac

Astronomy

Jan. 31, 2015 Rise Set
Actual Time
Civil Twilight
Nautical Twilight
Astronomical Twilight
Moon
Length of Visible Light
Length of Day
Tomorrow will be .
, % of the Moon is Illuminated

Today's Extremes

State Highs State Lows

Community

WunderPhotos

Upload Photos

1,792,154 photos uploaded!

WunderBlogs® & News

Nearby

Air Quality

  Air Quality AQ Index Pollutant
Not available.

Snow Depth

Station Depth Elevation

Earthquake Activity

City Distance Mag. Time & Date
Minimum magnitude displayed is 2.5.

Coastal Water Temperatures

Place Temperature

Nearby Weather Stations